createdAt,value
2017-04-03T00:00:30.251Z,0
2017-04-03T00:01:10.917Z,0
2017-04-03T00:01:51.579Z,0
2017-04-03T00:02:32.161Z,0
2017-04-03T00:03:12.862Z,0
2017-04-03T00:03:53.531Z,0
2017-04-03T00:04:34.090Z,0
2017-04-03T00:05:14.725Z,0
2017-04-03T00:05:55.387Z,0
2017-04-03T00:06:35.949Z,0
2017-04-03T00:07:16.590Z,0
2017-04-03T00:07:57.235Z,0
2017-04-03T00:08:37.932Z,0
2017-04-03T00:09:18.515Z,0
2017-04-03T00:09:59.204Z,0
2017-04-03T00:10:39.848Z,0
2017-04-03T00:11:20.543Z,0
2017-04-03T00:12:01.145Z,0
2017-04-03T00:12:41.873Z,0
2017-04-03T00:13:22.502Z,0
2017-04-03T00:14:03.155Z,0
2017-04-03T00:14:43.808Z,0
2017-04-03T00:15:24.460Z,0
2017-04-03T00:16:05.114Z,0
2017-04-03T00:16:46.793Z,0
2017-04-03T00:17:27.445Z,0
2017-04-03T00:18:08.095Z,0
2017-04-03T00:18:48.751Z,0
2017-04-03T00:19:29.404Z,0
2017-04-03T00:20:10.057Z,0
2017-04-03T00:20:50.708Z,0
2017-04-03T00:21:32.385Z,0
2017-04-03T00:22:12.963Z,0
2017-04-03T00:22:53.642Z,0
2017-04-03T00:23:34.294Z,0
2017-04-03T00:24:14.996Z,0
2017-04-03T00:24:55.567Z,0
2017-04-03T00:25:36.269Z,0
2017-04-03T00:26:16.966Z,0
2017-04-03T00:26:57.610Z,0
2017-04-03T00:27:38.186Z,0
2017-04-03T00:28:18.892Z,0
2017-04-03T00:28:59.533Z,0
2017-04-03T00:29:40.219Z,0
2017-04-03T00:30:21.098Z,0
2017-04-03T00:31:01.790Z,0
2017-04-03T00:31:43.490Z,0
2017-04-03T00:32:24.162Z,0
2017-04-03T00:33:04.742Z,0
2017-04-03T00:33:45.423Z,0
2017-04-03T00:34:26.077Z,0
2017-04-03T00:35:06.774Z,0
2017-04-03T00:35:47.360Z,0
2017-04-03T00:36:28.039Z,0
2017-04-03T00:37:08.702Z,0
2017-04-03T00:37:49.352Z,0
2017-04-03T00:38:30.021Z,0
2017-04-03T00:39:10.751Z,0
2017-04-03T00:39:51.408Z,0
2017-04-03T00:40:32.069Z,0
2017-04-03T00:41:12.830Z,0
2017-04-03T00:41:53.408Z,0
2017-04-03T00:42:34.129Z,0
2017-04-03T00:43:14.884Z,0
2017-04-03T00:43:55.454Z,0
2017-04-03T00:44:36.088Z,0
2017-04-03T00:45:16.740Z,0
2017-04-03T00:45:58.115Z,0
2017-04-03T00:46:38.749Z,0
2017-04-03T00:47:19.417Z,0
2017-04-03T00:48:00.070Z,0
2017-04-03T00:48:40.721Z,0
2017-04-03T00:49:21.383Z,0
2017-04-03T00:50:02.014Z,0
2017-04-03T00:50:42.678Z,0
2017-04-03T00:51:23.333Z,0
2017-04-03T00:52:04.026Z,0
2017-04-03T00:52:44.643Z,0
2017-04-03T00:53:25.278Z,0
2017-04-03T00:54:05.945Z,0
2017-04-03T00:54:46.633Z,0
2017-04-03T00:55:27.228Z,0
2017-04-03T00:56:07.892Z,0
2017-04-03T00:56:48.559Z,0
2017-04-03T00:57:29.131Z,0
2017-04-03T00:58:09.853Z,0
2017-04-03T00:58:50.506Z,0
2017-04-03T00:59:31.075Z,0
2017-04-03T01:00:11.715Z,0
2017-04-03T01:00:52.380Z,0
2017-04-03T01:01:32.953Z,0
2017-04-03T01:02:13.664Z,0
2017-04-03T01:02:54.332Z,0
2017-04-03T01:03:34.927Z,0
2017-04-03T01:04:15.622Z,0
2017-04-03T01:04:56.297Z,0
2017-04-03T01:05:36.840Z,0
2017-04-03T01:06:17.503Z,0
2017-04-03T01:06:58.149Z,0
2017-04-03T01:07:38.887Z,0
2017-04-03T01:08:19.454Z,0
2017-04-03T01:09:00.099Z,0
2017-04-03T01:09:40.753Z,0
2017-04-03T01:10:21.421Z,0
2017-04-03T01:11:02.166Z,0
2017-04-03T01:11:42.813Z,0
2017-04-03T01:12:23.395Z,0
2017-04-03T01:13:04.121Z,0
2017-04-03T01:13:44.877Z,0
2017-04-03T01:14:26.277Z,0
2017-04-03T01:15:07.000Z,0
2017-04-03T01:15:47.652Z,0
2017-04-03T01:16:28.236Z,0
2017-04-03T01:17:08.960Z,0
2017-04-03T01:17:49.725Z,0
2017-04-03T01:18:30.486Z,0
2017-04-03T01:19:11.224Z,0
2017-04-03T01:19:51.980Z,0
2017-04-03T01:20:32.629Z,0
2017-04-03T01:21:13.390Z,0
2017-04-03T01:21:54.086Z,0
2017-04-03T01:22:34.659Z,0
2017-04-03T01:23:15.345Z,0
2017-04-03T01:23:56.115Z,0
2017-04-03T01:24:36.808Z,0
2017-04-03T01:25:17.380Z,0
2017-04-03T01:25:58.060Z,0
2017-04-03T01:26:38.713Z,0
2017-04-03T01:27:19.412Z,0
2017-04-03T01:28:00.167Z,0
2017-04-03T01:28:40.925Z,0
2017-04-03T01:29:21.682Z,0
2017-04-03T01:30:02.435Z,0
2017-04-03T01:30:43.090Z,0
2017-04-03T01:31:23.844Z,0
2017-04-03T01:32:04.498Z,0
2017-04-03T01:32:45.149Z,0
2017-04-03T01:33:25.906Z,0
2017-04-03T01:34:06.559Z,0
2017-04-03T01:34:47.207Z,0
2017-04-03T01:35:27.968Z,0
2017-04-03T01:36:08.621Z,0
2017-04-03T01:36:49.374Z,0
2017-04-03T01:37:29.953Z,0
2017-04-03T01:38:10.655Z,0
2017-04-03T01:38:51.214Z,0
2017-04-03T01:39:31.951Z,0
2017-04-03T01:40:12.703Z,0
2017-04-03T01:40:53.302Z,0
2017-04-03T01:41:33.998Z,0
2017-04-03T01:42:14.651Z,0
2017-04-03T01:42:55.307Z,0
2017-04-03T01:43:35.960Z,0
2017-04-03T01:44:16.611Z,0
2017-04-03T01:44:57.363Z,0
2017-04-03T01:45:38.018Z,0
2017-04-03T01:46:18.795Z,0
2017-04-03T01:46:59.532Z,0
2017-04-03T01:47:40.114Z,0
2017-04-03T01:48:20.838Z,0
2017-04-03T01:49:01.486Z,0
2017-04-03T01:49:42.038Z,0
2017-04-03T01:50:22.694Z,0
2017-04-03T01:51:03.369Z,0
2017-04-03T01:51:43.923Z,0
2017-04-03T01:52:24.666Z,0
2017-04-03T01:53:05.437Z,0
2017-04-03T01:53:46.189Z,0
2017-04-03T01:54:26.927Z,0
2017-04-03T01:55:07.692Z,0
2017-04-03T01:55:48.426Z,0
2017-04-03T01:56:29.093Z,0
2017-04-03T01:57:09.832Z,0
2017-04-03T01:57:50.498Z,0
2017-04-03T01:58:31.203Z,0
2017-04-03T01:59:11.775Z,0
2017-04-03T01:59:52.461Z,0
2017-04-03T02:00:33.109Z,0
2017-04-03T02:01:13.817Z,0
2017-04-03T02:01:54.359Z,0
2017-04-03T02:02:35.068Z,0
2017-04-03T02:03:15.654Z,0
2017-04-03T02:03:56.386Z,0
2017-04-03T02:04:37.149Z,0
2017-04-03T02:05:17.709Z,0
2017-04-03T02:05:58.443Z,0
2017-04-03T02:06:39.202Z,0
2017-04-03T02:07:19.782Z,0
2017-04-03T02:08:00.491Z,0
2017-04-03T02:08:41.163Z,0
2017-04-03T02:09:21.923Z,0
2017-04-03T02:10:02.676Z,0
2017-04-03T02:10:43.415Z,0
2017-04-03T02:11:24.099Z,0
2017-04-03T02:12:04.835Z,0
2017-04-03T02:12:45.595Z,0
2017-04-03T02:13:26.278Z,0
2017-04-03T02:14:06.853Z,0
2017-04-03T02:14:47.543Z,0
2017-04-03T02:15:28.299Z,0
2017-04-03T02:16:08.991Z,0
2017-04-03T02:16:49.572Z,0
2017-04-03T02:17:30.242Z,0
2017-04-03T02:18:10.914Z,0
2017-04-03T02:18:51.683Z,0
2017-04-03T02:19:32.424Z,0
2017-04-03T02:20:13.180Z,0
2017-04-03T02:20:53.936Z,0
2017-04-03T02:21:34.690Z,0
2017-04-03T02:22:15.439Z,0
2017-04-03T02:22:57.019Z,0
2017-04-03T02:23:37.705Z,0
2017-04-03T02:24:18.281Z,0
2017-04-03T02:24:59.005Z,0
2017-04-03T02:25:39.727Z,0
2017-04-03T02:26:20.426Z,0
2017-04-03T02:27:00.998Z,0
2017-04-03T02:27:41.699Z,0
2017-04-03T02:28:22.274Z,0
2017-04-03T02:29:03.024Z,0
2017-04-03T02:29:44.784Z,0
2017-04-03T02:30:25.367Z,0
2017-04-03T02:31:06.084Z,0
2017-04-03T02:31:46.830Z,0
2017-04-03T02:32:27.404Z,0
2017-04-03T02:33:08.155Z,0
2017-04-03T02:33:48.892Z,0
2017-04-03T02:34:29.659Z,0
2017-04-03T02:35:10.412Z,0
2017-04-03T02:35:51.177Z,0
2017-04-03T02:36:31.920Z,0
2017-04-03T02:37:12.613Z,0
2017-04-03T02:37:53.177Z,0
2017-04-03T02:38:33.880Z,0
2017-04-03T02:39:14.686Z,0
2017-04-03T02:39:55.434Z,0
2017-04-03T02:40:38.677Z,0
2017-04-03T02:41:19.283Z,0
2017-04-03T02:42:00.974Z,0
2017-04-03T02:42:47.242Z,0
2017-04-03T02:43:28.917Z,0
2017-04-03T02:44:09.578Z,0
2017-04-03T02:44:52.164Z,0
2017-04-03T02:45:33.849Z,0
2017-04-03T02:46:14.498Z,0
2017-04-03T02:46:56.166Z,0
2017-04-03T02:47:36.760Z,0
2017-04-03T02:48:17.307Z,0
2017-04-03T02:48:57.943Z,0
2017-04-03T02:49:39.604Z,0
2017-04-03T02:50:20.190Z,0
2017-04-03T02:51:00.759Z,0
2017-04-03T02:51:41.366Z,0
2017-04-03T02:52:23.035Z,0
2017-04-03T02:53:05.624Z,0
2017-04-03T02:53:46.282Z,0
2017-04-03T02:54:27.958Z,0
2017-04-03T02:55:09.644Z,0
2017-04-03T02:55:50.291Z,0
2017-04-03T02:56:32.009Z,0
2017-04-03T02:57:12.627Z,0
2017-04-03T02:57:53.274Z,0
2017-04-03T02:58:35.884Z,0
2017-04-03T02:59:18.580Z,0
2017-04-03T02:59:59.227Z,0
2017-04-03T03:00:39.878Z,0
2017-04-03T03:01:31.180Z,0
2017-04-03T03:02:16.748Z,0
2017-04-03T03:02:57.403Z,0
2017-04-03T03:03:39.068Z,0
2017-04-03T03:04:19.720Z,0
2017-04-03T03:05:01.394Z,0
2017-04-03T03:05:42.060Z,0
2017-04-03T03:06:27.220Z,0
2017-04-03T03:07:07.866Z,0
2017-04-03T03:07:48.486Z,0
2017-04-03T03:08:29.027Z,0
2017-04-03T03:09:10.651Z,0
2017-04-03T03:09:51.433Z,0
2017-04-03T03:10:33.019Z,0
2017-04-03T03:11:13.582Z,0
2017-04-03T03:11:56.233Z,0
2017-04-03T03:12:37.909Z,0
2017-04-03T03:13:18.482Z,0
2017-04-03T03:13:59.111Z,0
2017-04-03T03:14:40.785Z,0
2017-04-03T03:15:21.363Z,0
2017-04-03T03:16:02.013Z,0
2017-04-03T03:16:42.641Z,0
2017-04-03T03:17:23.222Z,0
2017-04-03T03:18:03.858Z,0
2017-04-03T03:18:44.501Z,0
2017-04-03T03:19:25.154Z,0
2017-04-03T03:20:05.800Z,0
2017-04-03T03:20:47.491Z,0
2017-04-03T03:21:29.159Z,0
2017-04-03T03:22:11.755Z,0
2017-04-03T03:22:52.409Z,0
2017-04-03T03:23:33.064Z,0
2017-04-03T03:24:15.658Z,0
2017-04-03T03:24:57.337Z,0
2017-04-03T03:25:39.937Z,0
2017-04-03T03:26:20.591Z,0
2017-04-03T03:27:03.187Z,0
2017-04-03T03:27:43.826Z,0
2017-04-03T03:28:24.514Z,0
2017-04-03T03:29:05.149Z,0
2017-04-03T03:29:45.730Z,0
2017-04-03T03:30:28.406Z,0
2017-04-03T03:31:15.700Z,0
2017-04-03T03:31:56.293Z,0
2017-04-03T03:32:36.922Z,0
2017-04-03T03:33:17.584Z,0
2017-04-03T03:34:04.055Z,0
2017-04-03T03:34:45.740Z,0
2017-04-03T03:35:26.404Z,0
2017-04-03T03:36:09.090Z,0
2017-04-03T03:36:50.779Z,0
2017-04-03T03:37:31.425Z,0
2017-04-03T03:38:12.064Z,0
2017-04-03T03:38:52.657Z,0
2017-04-03T03:39:33.215Z,0
2017-04-03T03:40:13.841Z,0
2017-04-03T03:40:55.500Z,0
2017-04-03T03:41:38.135Z,0
2017-04-03T03:42:18.702Z,0
2017-04-03T03:43:00.331Z,0
2017-04-03T03:43:40.995Z,0
2017-04-03T03:44:22.671Z,0
2017-04-03T03:45:03.305Z,0
2017-04-03T03:45:43.982Z,0
2017-04-03T03:46:25.622Z,0
2017-04-03T03:47:06.286Z,0
2017-04-03T03:47:46.986Z,0
2017-04-03T03:48:29.637Z,0
2017-04-03T03:49:10.299Z,0
2017-04-03T03:49:50.925Z,0
2017-04-03T03:50:33.561Z,0
2017-04-03T03:51:15.237Z,0
2017-04-03T03:51:57.933Z,0
2017-04-03T03:52:39.618Z,0
2017-04-03T03:53:21.271Z,0
2017-04-03T03:54:01.933Z,0
2017-04-03T03:54:42.585Z,0
2017-04-03T03:55:29.789Z,0
2017-04-03T03:56:10.441Z,0
2017-04-03T03:56:53.040Z,0
2017-04-03T03:57:33.686Z,0
2017-04-03T03:58:14.349Z,0
2017-04-03T03:58:59.705Z,0
2017-04-03T03:59:40.355Z,0
2017-04-03T04:00:21.011Z,0
2017-04-03T04:01:03.609Z,0
2017-04-03T04:01:44.268Z,0
2017-04-03T04:02:24.919Z,0
2017-04-03T04:03:05.500Z,0
2017-04-03T04:03:46.125Z,0
2017-04-03T04:04:26.780Z,0
2017-04-03T04:05:07.355Z,0
2017-04-03T04:05:49.001Z,0
2017-04-03T04:06:36.310Z,0
2017-04-03T04:07:16.897Z,0
2017-04-03T04:07:57.514Z,0
2017-04-03T04:08:38.271Z,0
2017-04-03T04:09:23.634Z,0
2017-04-03T04:10:04.286Z,0
2017-04-03T04:10:44.941Z,0
2017-04-03T04:11:25.594Z,0
2017-04-03T04:12:07.293Z,0
2017-04-03T04:12:47.923Z,0
2017-04-03T04:13:29.596Z,0
2017-04-03T04:14:10.254Z,0
2017-04-03T04:14:51.926Z,0
2017-04-03T04:15:33.605Z,0
2017-04-03T04:16:14.257Z,0
2017-04-03T04:16:54.911Z,0
2017-04-03T04:17:35.558Z,0
2017-04-03T04:18:16.214Z,0
2017-04-03T04:18:56.878Z,0
2017-04-03T04:19:37.522Z,0
2017-04-03T04:20:18.176Z,0
2017-04-03T04:20:59.849Z,0
2017-04-03T04:21:41.530Z,0
2017-04-03T04:22:22.116Z,0
2017-04-03T04:23:03.686Z,0
2017-04-03T04:23:44.307Z,0
2017-04-03T04:24:24.889Z,0
2017-04-03T04:25:11.563Z,0
2017-04-03T04:25:52.210Z,0
2017-04-03T04:26:32.786Z,0
2017-04-03T04:27:19.039Z,0
2017-04-03T04:28:00.713Z,0
2017-04-03T04:28:41.302Z,0
2017-04-03T04:29:21.921Z,0
2017-04-03T04:30:03.591Z,0
2017-04-03T04:30:44.163Z,0
2017-04-03T04:31:25.829Z,0
2017-04-03T04:32:06.477Z,0
2017-04-03T04:32:47.048Z,0
2017-04-03T04:33:28.709Z,0
2017-04-03T04:34:09.356Z,0
2017-04-03T04:34:50.016Z,0
2017-04-03T04:35:30.665Z,0
2017-04-03T04:36:11.314Z,0
2017-04-03T04:36:53.015Z,0
2017-04-03T04:37:34.686Z,0
2017-04-03T04:38:15.408Z,0
2017-04-03T04:38:55.957Z,0
2017-04-03T04:39:36.634Z,0
2017-04-03T04:40:17.281Z,0
2017-04-03T04:40:57.846Z,0
2017-04-03T04:41:44.018Z,0
2017-04-03T04:42:25.690Z,0
2017-04-03T04:43:07.410Z,0
2017-04-03T04:43:48.007Z,0
2017-04-03T04:44:30.644Z,0
2017-04-03T04:45:12.293Z,0
2017-04-03T04:45:54.010Z,0
2017-04-03T04:46:34.567Z,0
2017-04-03T04:47:16.208Z,0
2017-04-03T04:47:56.853Z,0
2017-04-03T04:48:42.139Z,0
2017-04-03T04:49:22.716Z,0
2017-04-03T04:50:03.307Z,0
2017-04-03T04:50:43.969Z,0
2017-04-03T04:51:25.677Z,0
2017-04-03T04:52:06.248Z,0
2017-04-03T04:52:46.857Z,0
2017-04-03T04:53:27.504Z,0
2017-04-03T04:54:08.083Z,0
2017-04-03T04:54:48.727Z,0
2017-04-03T04:55:30.385Z,0
2017-04-03T04:56:10.962Z,0
2017-04-03T04:56:51.588Z,0
2017-04-03T04:57:32.238Z,0
2017-04-03T04:58:12.821Z,0
2017-04-03T04:58:53.428Z,0
2017-04-03T04:59:34.118Z,0
2017-04-03T05:00:14.660Z,0
2017-04-03T05:00:56.349Z,0
2017-04-03T05:01:39.023Z,0
2017-04-03T05:02:19.603Z,0
2017-04-03T05:03:00.229Z,0
2017-04-03T05:03:40.874Z,0
2017-04-03T05:04:21.534Z,0
2017-04-03T05:05:02.180Z,0
2017-04-03T05:05:42.831Z,0
2017-04-03T05:06:27.998Z,0
2017-04-03T05:07:15.500Z,0
2017-04-03T05:07:56.161Z,0
2017-04-03T05:08:36.801Z,0
2017-04-03T05:09:17.453Z,0
2017-04-03T05:09:58.106Z,0
2017-04-03T05:10:38.787Z,0
2017-04-03T05:11:19.417Z,0
2017-04-03T05:12:00.061Z,0
2017-04-03T05:12:40.671Z,0
2017-04-03T05:13:21.222Z,0
2017-04-03T05:14:01.822Z,0
2017-04-03T05:14:42.474Z,0
2017-04-03T05:15:23.067Z,0
2017-04-03T05:16:03.647Z,0
2017-04-03T05:16:44.246Z,0
2017-04-03T05:17:24.893Z,0
2017-04-03T05:18:05.462Z,0
2017-04-03T05:18:46.095Z,0
2017-04-03T05:19:26.746Z,5
2017-04-03T05:20:07.316Z,5
2017-04-03T05:20:48.982Z,5
2017-04-03T05:21:30.646Z,5
2017-04-03T05:22:11.282Z,5
2017-04-03T05:22:51.964Z,5
2017-04-03T05:23:32.599Z,5
2017-04-03T05:24:13.280Z,5
2017-04-03T05:24:53.904Z,5
2017-04-03T05:25:34.568Z,5
2017-04-03T05:26:15.214Z,5
2017-04-03T05:26:55.877Z,5
2017-04-03T05:27:36.533Z,5
2017-04-03T05:28:17.183Z,5
2017-04-03T05:28:57.852Z,5
2017-04-03T05:29:38.490Z,5
2017-04-03T05:30:24.056Z,5
2017-04-03T05:31:04.726Z,5
2017-04-03T05:31:56.012Z,5
2017-04-03T05:32:48.548Z,5
2017-04-03T05:33:29.197Z,5
2017-04-03T05:34:25.544Z,5
2017-04-03T05:35:06.134Z,10
2017-04-03T05:35:47.744Z,10
2017-04-03T05:36:33.305Z,10
2017-04-03T05:42:43.434Z,10
2017-04-03T05:43:24.030Z,10
2017-04-03T05:44:04.593Z,10
2017-04-03T05:44:45.249Z,10
2017-04-03T05:45:25.888Z,10
2017-04-03T05:46:06.487Z,10
2017-04-03T05:46:51.887Z,10
2017-04-03T05:47:39.213Z,10
2017-04-03T05:48:24.687Z,15
2017-04-03T05:49:05.328Z,15
2017-04-03T05:49:45.985Z,15
2017-04-03T05:50:26.688Z,15
2017-04-03T05:51:07.290Z,15
2017-04-03T05:51:48.954Z,15
2017-04-03T05:52:29.617Z,15
2017-04-03T05:53:12.218Z,15
2017-04-03T05:53:54.814Z,15
2017-04-03T05:54:35.501Z,15
2017-04-03T05:55:16.132Z,15
2017-04-03T05:56:02.725Z,15
2017-04-03T05:56:43.362Z,15
2017-04-03T05:57:24.019Z,15
2017-04-03T05:58:04.699Z,15
2017-04-03T05:58:57.240Z,15
2017-04-03T05:59:37.881Z,15
2017-04-03T06:00:18.494Z,15
2017-04-03T06:01:00.197Z,15
2017-04-03T06:01:40.821Z,15
2017-04-03T06:02:21.492Z,15
2017-04-03T06:03:02.155Z,15
2017-04-03T06:03:42.789Z,15
2017-04-03T06:04:24.466Z,15
2017-04-03T06:05:07.200Z,15
2017-04-03T06:05:52.601Z,15
2017-04-03T06:06:33.192Z,15
2017-04-03T06:07:15.789Z,15
2017-04-03T06:07:56.396Z,15
2017-04-03T06:08:37.047Z,15
2017-04-03T06:09:18.717Z,15
2017-04-03T06:10:00.404Z,15
2017-04-03T06:10:41.060Z,15
2017-04-03T06:11:22.634Z,20
2017-04-03T06:12:04.205Z,20
2017-04-03T06:12:49.464Z,20
2017-04-03T06:13:30.092Z,20
2017-04-03T06:14:10.737Z,20
2017-04-03T06:14:51.380Z,20
2017-04-03T06:17:32.489Z,20
2017-04-03T06:18:13.122Z,20
2017-04-03T06:18:53.775Z,20
2017-04-03T06:19:39.333Z,20
2017-04-03T06:20:19.990Z,20
2017-04-03T06:21:00.651Z,20
2017-04-03T06:21:41.300Z,20
2017-04-03T06:22:22.972Z,20
2017-04-03T06:23:04.576Z,20
2017-04-03T06:23:45.141Z,25
2017-04-03T06:24:25.829Z,25
2017-04-03T06:25:06.549Z,25
2017-04-03T06:25:47.201Z,25
2017-04-03T06:26:27.754Z,25
2017-04-03T06:27:09.398Z,25
2017-04-03T06:27:50.044Z,30
2017-04-03T06:28:30.733Z,30
2017-04-03T06:29:11.326Z,30
2017-04-03T06:29:51.893Z,30
2017-04-03T06:30:32.572Z,30
2017-04-03T06:31:18.160Z,30
2017-04-03T06:31:58.728Z,30
2017-04-03T06:32:39.450Z,30
2017-04-03T06:33:21.089Z,30
2017-04-03T06:34:02.720Z,35
2017-04-03T06:34:43.312Z,35
2017-04-03T06:35:23.989Z,35
2017-04-03T06:36:04.622Z,35
2017-04-03T06:36:45.220Z,40
2017-04-03T06:37:25.800Z,40
2017-04-03T06:38:06.399Z,40
2017-04-03T06:38:48.054Z,40
2017-04-03T06:39:28.656Z,40
2017-04-03T06:40:09.250Z,45
2017-04-03T06:40:50.893Z,45
2017-04-03T06:41:31.457Z,45
2017-04-03T06:42:12.111Z,45
2017-04-03T06:42:53.512Z,50
2017-04-03T06:43:35.830Z,50
2017-04-03T06:44:16.461Z,50
2017-04-03T06:44:57.117Z,50
2017-04-03T06:45:38.542Z,50
2017-04-03T06:46:19.126Z,50
2017-04-03T06:46:59.799Z,50
2017-04-03T06:47:40.387Z,50
2017-04-03T06:48:21.004Z,45
2017-04-03T06:49:01.547Z,45
2017-04-03T06:49:44.162Z,45
2017-04-03T06:50:24.706Z,45
2017-04-03T06:51:05.297Z,45
2017-04-03T06:51:45.868Z,45
2017-04-03T06:52:27.432Z,45
2017-04-03T06:53:08.014Z,45
2017-04-03T06:53:50.587Z,45
2017-04-03T06:54:31.156Z,45
2017-04-03T06:55:12.717Z,45
2017-04-03T06:55:53.387Z,45
2017-04-03T06:56:35.956Z,45
2017-04-03T06:57:17.066Z,45
2017-04-03T06:57:57.651Z,50
2017-04-03T06:58:38.248Z,50
2017-04-03T06:59:18.874Z,50
2017-04-03T06:59:59.434Z,50
2017-04-03T07:00:40.027Z,50
2017-04-03T07:01:20.661Z,50
2017-04-03T07:02:07.797Z,50
2017-04-03T07:02:53.296Z,45
2017-04-03T07:03:33.891Z,45
2017-04-03T07:04:14.512Z,50
2017-04-03T07:04:55.124Z,50
2017-04-03T07:05:40.300Z,50
2017-04-03T07:06:20.862Z,50
2017-04-03T07:07:03.438Z,50
2017-04-03T07:07:44.009Z,50
2017-04-03T07:08:25.591Z,50
2017-04-03T07:09:06.251Z,55
2017-04-03T07:09:47.865Z,55
2017-04-03T07:10:29.443Z,55
2017-04-03T07:11:09.986Z,55
2017-04-03T07:11:50.620Z,55
2017-04-03T07:12:31.184Z,55
2017-04-03T07:13:17.600Z,55
2017-04-03T07:13:58.171Z,55
2017-04-03T07:14:39.742Z,55
2017-04-03T07:15:20.305Z,55
2017-04-03T07:16:00.874Z,55
2017-04-03T07:16:41.466Z,55
2017-04-03T07:17:22.020Z,55
2017-04-03T07:18:02.588Z,55
2017-04-03T07:18:45.168Z,60
2017-04-03T07:19:25.721Z,60
2017-04-03T07:20:06.302Z,60
2017-04-03T07:20:48.452Z,60
2017-04-03T07:21:29.025Z,60
2017-04-03T07:22:09.585Z,60
2017-04-03T07:22:50.167Z,65
2017-04-03T07:23:30.781Z,65
2017-04-03T07:24:11.352Z,70
2017-04-03T07:24:51.912Z,70
2017-04-03T07:25:32.505Z,70
2017-04-03T07:26:13.094Z,70
2017-04-03T07:26:53.664Z,70
2017-04-03T07:27:34.228Z,75
2017-04-03T07:28:14.798Z,75
2017-04-03T07:28:55.369Z,75
2017-04-03T07:29:35.920Z,75
2017-04-03T07:30:16.493Z,75
2017-04-03T07:30:57.077Z,75
2017-04-03T07:31:37.754Z,75
2017-04-03T07:32:18.304Z,80
2017-04-03T07:32:59.868Z,80
2017-04-03T07:33:40.449Z,80
2017-04-03T07:34:23.026Z,85
2017-04-03T07:35:05.605Z,85
2017-04-03T07:35:46.191Z,90
2017-04-03T07:36:26.742Z,90
2017-04-03T07:37:07.341Z,95
2017-04-03T07:37:47.919Z,95
2017-04-03T07:38:29.482Z,95
2017-04-03T07:39:10.063Z,95
2017-04-03T07:39:50.734Z,100
2017-04-03T07:40:31.311Z,100
2017-04-03T07:41:11.879Z,100
2017-04-03T07:41:52.444Z,95
2017-04-03T07:42:33.012Z,95
2017-04-03T07:43:13.582Z,95
2017-04-03T07:43:55.049Z,95
2017-04-03T07:44:35.604Z,95
2017-04-03T07:45:16.260Z,95
2017-04-03T07:45:56.900Z,95
2017-04-03T07:46:37.470Z,95
2017-04-03T07:47:18.106Z,95
2017-04-03T07:47:58.767Z,95
2017-04-03T07:48:39.406Z,95
2017-04-03T07:49:24.885Z,100
2017-04-03T07:50:06.561Z,100
2017-04-03T07:50:47.209Z,100
2017-04-03T07:51:27.869Z,100
2017-04-03T07:52:08.522Z,100
2017-04-03T07:52:51.121Z,105
2017-04-03T07:53:31.699Z,105
2017-04-03T07:54:13.453Z,100
2017-04-03T07:54:56.083Z,100
2017-04-03T07:55:36.652Z,100
2017-04-03T07:56:17.229Z,95
2017-04-03T07:56:57.891Z,95
2017-04-03T07:57:38.591Z,95
2017-04-03T07:58:19.252Z,95
2017-04-03T07:59:00.938Z,95
2017-04-03T07:59:41.581Z,95
2017-04-03T08:00:22.229Z,95
2017-04-03T08:01:02.887Z,95
2017-04-03T08:01:43.536Z,95
2017-04-03T08:02:24.801Z,100
2017-04-03T08:03:05.380Z,100
2017-04-03T08:03:46.086Z,100
2017-04-03T08:04:26.643Z,100
2017-04-03T08:05:07.265Z,105
2017-04-03T08:05:52.832Z,105
2017-04-03T08:06:33.383Z,110
2017-04-03T08:07:14.088Z,110
2017-04-03T08:07:59.399Z,110
2017-04-03T08:08:39.992Z,110
2017-04-03T08:09:20.613Z,110
2017-04-03T08:10:01.264Z,105
2017-04-03T08:10:41.905Z,105
2017-04-03T08:11:22.565Z,105
2017-04-03T08:12:04.259Z,110
2017-04-03T08:12:44.921Z,105
2017-04-03T08:13:25.565Z,105
2017-04-03T08:14:06.197Z,105
2017-04-03T08:14:46.861Z,105
2017-04-03T08:15:27.504Z,100
2017-04-03T08:16:08.170Z,100
2017-04-03T08:16:48.817Z,100
2017-04-03T08:17:29.470Z,100
2017-04-03T08:18:11.138Z,100
2017-04-03T08:18:53.755Z,100
2017-04-03T08:19:34.342Z,95
2017-04-03T08:20:14.966Z,95
2017-04-03T08:20:56.634Z,95
2017-04-03T08:21:37.319Z,95
2017-04-03T08:22:17.885Z,95
2017-04-03T08:22:58.591Z,95
2017-04-03T08:23:40.258Z,95
2017-04-03T08:24:20.912Z,95
2017-04-03T08:25:01.566Z,90
2017-04-03T08:25:42.217Z,90
2017-04-03T08:26:22.874Z,90
2017-04-03T08:27:03.430Z,90
2017-04-03T08:27:44.055Z,95
2017-04-03T08:28:24.654Z,95
2017-04-03T08:29:05.277Z,95
2017-04-03T08:29:45.934Z,95
2017-04-03T08:30:26.584Z,100
2017-04-03T08:31:08.160Z,100
2017-04-03T08:31:50.766Z,100
2017-04-03T08:32:31.361Z,100
2017-04-03T08:33:11.958Z,100
2017-04-03T08:33:52.619Z,100
2017-04-03T08:34:33.259Z,100
2017-04-03T08:35:14.000Z,100
2017-04-03T08:35:55.649Z,100
2017-04-03T08:36:37.406Z,100
2017-04-03T08:37:18.082Z,105
2017-04-03T08:37:59.765Z,105
2017-04-03T08:38:40.362Z,105
2017-04-03T08:39:20.960Z,105
2017-04-03T08:40:01.511Z,105
2017-04-03T08:40:42.115Z,105
2017-04-03T08:41:22.897Z,110
2017-04-03T08:42:03.572Z,115
2017-04-03T08:42:44.152Z,115
2017-04-03T08:43:24.823Z,120
2017-04-03T08:44:12.138Z,120
2017-04-03T08:44:52.812Z,120
2017-04-03T08:45:33.422Z,120
2017-04-03T08:46:14.009Z,120
2017-04-03T08:46:54.594Z,120
2017-04-03T08:47:35.186Z,120
2017-04-03T08:48:16.763Z,120
2017-04-03T08:48:57.360Z,125
2017-04-03T08:49:37.949Z,125
2017-04-03T08:50:18.525Z,130
2017-04-03T08:50:59.113Z,130
2017-04-03T08:51:39.712Z,135
2017-04-03T08:52:20.400Z,140
2017-04-03T08:53:01.229Z,145
2017-04-03T08:53:41.838Z,145
2017-04-03T08:54:22.504Z,150
2017-04-03T08:55:03.174Z,150
2017-04-03T08:55:45.823Z,150
2017-04-03T08:56:26.404Z,150
2017-04-03T08:57:12.614Z,150
2017-04-03T08:57:53.196Z,150
2017-04-03T08:58:38.326Z,150
2017-04-03T08:59:18.927Z,150
2017-04-03T08:59:59.504Z,155
2017-04-03T09:00:40.088Z,155
2017-04-03T09:01:20.657Z,160
2017-04-03T09:02:01.211Z,165
2017-04-03T09:02:41.772Z,170
2017-04-03T09:03:22.348Z,170
2017-04-03T09:04:03.922Z,175
2017-04-03T09:04:44.516Z,180
2017-04-03T09:05:25.093Z,185
2017-04-03T09:06:05.675Z,185
2017-04-03T09:06:46.225Z,190
2017-04-03T09:07:31.389Z,195
2017-04-03T09:08:13.109Z,200
2017-04-03T09:08:58.641Z,205
2017-04-03T09:09:39.239Z,205
2017-04-03T09:10:25.628Z,210
2017-04-03T09:11:07.227Z,215
2017-04-03T09:11:47.836Z,215
2017-04-03T09:12:34.140Z,215
2017-04-03T09:13:15.712Z,220
2017-04-03T09:13:57.360Z,225
2017-04-03T09:14:37.938Z,225
2017-04-03T09:15:20.499Z,225
2017-04-03T09:16:01.094Z,230
2017-04-03T09:16:41.697Z,230
2017-04-03T09:17:22.305Z,230
2017-04-03T09:18:02.849Z,235
2017-04-03T09:18:43.463Z,235
2017-04-03T09:19:25.049Z,235
2017-04-03T09:20:05.675Z,235
2017-04-03T09:20:46.245Z,235
2017-04-03T09:21:26.809Z,240
2017-04-03T09:22:07.444Z,240
2017-04-03T09:22:48.032Z,240
2017-04-03T09:23:28.609Z,240
2017-04-03T09:24:09.214Z,240
2017-04-03T09:24:49.787Z,240
2017-04-03T09:25:30.387Z,235
2017-04-03T09:26:10.962Z,235
2017-04-03T09:26:51.591Z,235
2017-04-03T09:27:32.136Z,235
2017-04-03T09:28:13.068Z,240
2017-04-03T09:28:54.168Z,240
2017-04-03T09:29:34.875Z,240
2017-04-03T09:30:15.442Z,240
2017-04-03T09:30:56.000Z,245
2017-04-03T09:31:36.656Z,245
2017-04-03T09:32:17.239Z,245
2017-04-03T09:32:58.809Z,245
2017-04-03T09:33:39.388Z,245
2017-04-03T09:34:20.010Z,250
2017-04-03T09:35:07.122Z,250
2017-04-03T09:35:48.707Z,255
2017-04-03T09:36:29.523Z,255
2017-04-03T09:37:10.174Z,255
2017-04-03T09:37:50.823Z,260
2017-04-03T09:38:31.567Z,265
2017-04-03T09:39:12.161Z,265
2017-04-03T09:39:52.728Z,260
2017-04-03T09:40:34.283Z,260
2017-04-03T09:41:14.835Z,255
2017-04-03T09:41:55.454Z,250
2017-04-03T09:42:36.271Z,250
2017-04-03T09:43:16.961Z,250
2017-04-03T09:43:58.618Z,250
2017-04-03T09:44:39.345Z,250
2017-04-03T09:45:20.058Z,250
2017-04-03T09:46:00.674Z,250
2017-04-03T09:46:42.383Z,255
2017-04-03T09:47:23.129Z,255
2017-04-03T09:48:03.803Z,255
2017-04-03T09:48:56.111Z,260
2017-04-03T09:49:36.720Z,260
2017-04-03T09:50:19.343Z,260
2017-04-03T09:50:59.942Z,260
2017-04-03T09:51:40.518Z,255
2017-04-03T09:52:21.111Z,255
2017-04-03T09:53:01.705Z,255
2017-04-03T09:53:42.376Z,255
2017-04-03T09:54:22.972Z,250
2017-04-03T09:55:04.550Z,250
2017-04-03T09:57:18.962Z,245
2017-04-03T09:58:00.543Z,245
2017-04-03T09:58:46.914Z,245
2017-04-03T09:59:27.478Z,250
2017-04-03T10:00:09.083Z,250
2017-04-03T10:00:50.660Z,250
2017-04-03T10:01:31.217Z,250
2017-04-03T10:02:11.780Z,245
2017-04-03T10:02:52.381Z,245
2017-04-03T10:03:32.958Z,245
2017-04-03T10:04:13.532Z,245